Time;durP1;ratioP1;P1;durP2;ratioP2;P2;SDS_P1;SDS_P2;PMS_P1;PMS_P2;Temp;Humidity;BMP_temperature;BMP_pressure;BME280_temperature;BME280_humidity;BME280_pressure;Samples;Min_cycle;Max_cycle;Signal;HPM_P1;HPM_P2
2020/12/15 00:00:38;;;;;;;17.90;8.73;;;;;;;;;;2060392;28;20475;-71
2020/12/15 00:01:58;;;;;;;18.90;9.30;;;;;;;;;;2064317;28;20042;-71
2020/12/15 00:03:17;;;;;;;15.90;8.93;;;;;;;;;;2065419;28;20023;-71
2020/12/15 00:04:36;;;;;;;16.20;8.80;;;;;;;;;;2064169;28;20031;-71
2020/12/15 00:05:55;;;;;;;18.08;9.27;;;;;;;;;;2064649;28;20027;-71
2020/12/15 00:07:13;;;;;;;15.40;8.77;;;;;;;;;;2063418;28;20057;-71
2020/12/15 00:08:32;;;;;;;14.32;8.25;;;;;;;;;;2064064;28;20031;-71
2020/12/15 00:09:51;;;;;;;14.77;8.30;;;;;;;;;;2064948;28;20027;-73
2020/12/15 00:11:16;;;;;;;19.23;8.63;;;;;;;;;;2063307;28;20409;-73
2020/12/15 00:12:35;;;;;;;14.68;8.82;;;;;;;;;;2063061;28;20038;-73
2020/12/15 00:13:54;;;;;;;14.82;9.13;;;;;;;;;;2064312;28;20018;-71
2020/12/15 00:15:13;;;;;;;16.60;9.23;;;;;;;;;;2059062;28;20027;-73
2020/12/15 00:16:32;;;;;;;17.15;8.23;;;;;;;;;;2063840;28;20117;-71
2020/12/15 00:17:51;;;;;;;18.60;8.85;;;;;;;;;;2063214;28;20482;-71
2020/12/15 00:19:10;;;;;;;15.98;8.45;;;;;;;;;;2062452;28;20030;-71
2020/12/15 00:20:30;;;;;;;18.15;9.63;;;;;;;;;;2064387;28;20022;-73
2020/12/15 00:21:49;;;;;;;14.52;8.00;;;;;;;;;;2063565;28;20040;-71
2020/12/15 00:23:08;;;;;;;12.63;8.35;;;;;;;;;;2063395;28;20043;-72
2020/12/15 00:24:27;;;;;;;15.70;9.30;;;;;;;;;;2064404;28;20030;-72
2020/12/15 00:25:47;;;;;;;16.63;8.45;;;;;;;;;;2063615;28;20073;-72
2020/12/15 00:27:05;;;;;;;12.73;8.00;;;;;;;;;;2064303;28;20022;-72
2020/12/15 00:28:24;;;;;;;12.40;7.88;;;;;;;;;;2065280;28;20026;-73
2020/12/15 00:29:43;;;;;;;13.88;7.70;;;;;;;;;;2065050;28;20058;-72
2020/12/15 00:31:02;;;;;;;12.20;7.93;;;;;;;;;;2061558;28;20022;-72
2020/12/15 00:32:21;;;;;;;12.68;7.72;;;;;;;;;;2064037;28;20030;-72
2020/12/15 00:33:40;;;;;;;12.82;7.65;;;;;;;;;;2063840;28;20026;-72
2020/12/15 00:34:59;;;;;;;13.85;7.90;;;;;;;;;;2061015;28;20031;-73
2020/12/15 00:36:18;;;;;;;14.60;7.60;;;;;;;;;;2065118;28;20506;-73
2020/12/15 00:37:37;;;;;;;14.93;8.20;;;;;;;;;;2063298;28;20035;-72
2020/12/15 00:38:56;;;;;;;15.40;8.50;;;;;;;;;;2059696;28;20038;-72
2020/12/15 00:40:15;;;;;;;15.23;8.30;;;;;;;;;;2060429;28;20034;-72
2020/12/15 00:41:34;;;;;;;12.10;7.43;;;;;;;;;;2064977;28;20038;-72
2020/12/15 00:42:53;;;;;;;11.68;7.40;;;;;;;;;;2062890;28;20082;-72
2020/12/15 00:44:12;;;;;;;13.75;7.90;;;;;;;;;;2060455;28;20386;-73
2020/12/15 00:45:31;;;;;;;12.38;7.63;;;;;;;;;;2060031;28;20026;-73
2020/12/15 00:46:50;;;;;;;13.45;7.88;;;;;;;;;;2063125;28;20026;-72
2020/12/15 00:48:08;;;;;;;15.48;8.55;;;;;;;;;;2061234;28;20026;-72
2020/12/15 00:49:27;;;;;;;13.82;8.25;;;;;;;;;;2059816;28;20255;-72
2020/12/15 00:50:46;;;;;;;15.77;7.43;;;;;;;;;;2064012;28;20026;-72
2020/12/15 00:52:05;;;;;;;15.40;7.95;;;;;;;;;;2060563;28;20022;-72
2020/12/15 00:53:24;;;;;;;15.93;8.48;;;;;;;;;;2066354;28;20094;-73
2020/12/15 00:54:43;;;;;;;14.43;8.20;;;;;;;;;;2064310;28;20034;-73
2020/12/15 00:56:04;;;;;;;14.52;8.27;;;;;;;;;;2058685;28;20026;-73
2020/12/15 00:57:23;;;;;;;14.82;9.20;;;;;;;;;;2064570;28;20026;-73
2020/12/15 00:58:42;;;;;;;17.77;9.70;;;;;;;;;;2057783;28;20034;-72
2020/12/15 01:00:01;;;;;;;14.75;9.05;;;;;;;;;;2061580;28;20117;-73
2020/12/15 01:01:20;;;;;;;14.57;9.32;;;;;;;;;;2062582;28;20031;-73
2020/12/15 01:02:39;;;;;;;15.95;8.50;;;;;;;;;;2062132;28;20054;-72
2020/12/15 01:03:58;;;;;;;13.57;7.97;;;;;;;;;;2063836;28;20035;-72
2020/12/15 01:05:17;;;;;;;13.10;8.38;;;;;;;;;;2057671;28;20057;-72
2020/12/15 01:06:35;;;;;;;16.38;8.75;;;;;;;;;;2059761;28;20019;-73
2020/12/15 01:07:54;;;;;;;19.98;9.27;;;;;;;;;;2064110;28;20049;-72
2020/12/15 01:09:13;;;;;;;13.73;8.80;;;;;;;;;;2060763;28;20034;-73
2020/12/15 01:10:32;;;;;;;16.00;8.70;;;;;;;;;;2062713;28;20027;-73
2020/12/15 01:11:51;;;;;;;15.95;9.05;;;;;;;;;;2062874;28;20097;-73
2020/12/15 01:13:10;;;;;;;18.30;9.65;;;;;;;;;;2062015;28;20513;-73
2020/12/15 01:14:29;;;;;;;12.40;8.63;;;;;;;;;;2063695;28;20042;-72
2020/12/15 01:15:48;;;;;;;16.63;9.40;;;;;;;;;;2061936;28;20034;-72
2020/12/15 01:17:07;;;;;;;15.93;8.98;;;;;;;;;;2059293;28;20027;-72
2020/12/15 01:18:26;;;;;;;18.90;9.57;;;;;;;;;;2059664;28;20034;-73
2020/12/15 01:19:45;;;;;;;15.25;9.18;;;;;;;;;;2065308;28;20031;-73
2020/12/15 01:21:04;;;;;;;14.32;8.98;;;;;;;;;;2064301;28;20043;-72
2020/12/15 01:22:23;;;;;;;17.70;9.80;;;;;;;;;;2062770;28;20030;-73
2020/12/15 01:23:42;;;;;;;14.95;8.80;;;;;;;;;;2063019;28;20034;-72
2020/12/15 01:25:01;;;;;;;14.35;8.75;;;;;;;;;;2062929;28;20971;-72
2020/12/15 01:26:21;;;;;;;13.20;7.75;;;;;;;;;;2064635;28;20039;-73
2020/12/15 01:27:40;;;;;;;15.48;8.77;;;;;;;;;;2063371;28;20027;-73
2020/12/15 01:28:59;;;;;;;16.05;8.52;;;;;;;;;;2057388;28;20031;-73
2020/12/15 01:30:18;;;;;;;14.98;8.50;;;;;;;;;;2058161;28;20109;-72
2020/12/15 01:31:37;;;;;;;15.23;8.18;;;;;;;;;;2063066;28;20485;-72
2020/12/15 01:32:56;;;;;;;15.68;9.10;;;;;;;;;;2060060;28;20063;-72
2020/12/15 01:34:15;;;;;;;16.08;8.13;;;;;;;;;;2062696;28;20478;-72
2020/12/15 01:35:33;;;;;;;18.70;9.30;;;;;;;;;;2063840;28;20030;-72
2020/12/15 01:36:52;;;;;;;17.95;8.27;;;;;;;;;;2063145;28;20026;-72
2020/12/15 01:38:11;;;;;;;12.88;8.23;;;;;;;;;;2064562;28;20034;-72
2020/12/15 01:39:30;;;;;;;15.73;9.15;;;;;;;;;;2065443;28;20022;-72
2020/12/15 01:40:52;;;;;;;22.75;10.00;;;;;;;;;;2065308;28;20422;-72
2020/12/15 01:42:11;;;;;;;18.88;9.57;;;;;;;;;;2064344;28;20066;-72
2020/12/15 01:43:31;;;;;;;23.45;11.07;;;;;;;;;;2064143;28;20026;-72
2020/12/15 01:44:50;;;;;;;18.60;9.95;;;;;;;;;;2064603;28;20398;-72
2020/12/15 01:46:09;;;;;;;15.77;8.48;;;;;;;;;;2059234;28;20030;-72
2020/12/15 01:47:28;;;;;;;15.77;8.82;;;;;;;;;;2061963;28;20042;-72
2020/12/15 01:48:47;;;;;;;19.23;9.10;;;;;;;;;;2064801;28;20035;-72
2020/12/15 01:50:06;;;;;;;17.02;8.90;;;;;;;;;;2062513;28;20030;-71
2020/12/15 01:51:25;;;;;;;12.77;8.35;;;;;;;;;;2064444;28;20487;-71
2020/12/15 01:52:44;;;;;;;15.57;8.23;;;;;;;;;;2062466;28;20031;-72
2020/12/15 01:54:03;;;;;;;14.48;8.30;;;;;;;;;;2063704;28;20026;-71
2020/12/15 01:55:23;;;;;;;16.45;8.30;;;;;;;;;;2065531;28;20030;-71
2020/12/15 01:56:41;;;;;;;20.20;8.60;;;;;;;;;;2062490;28;20030;-71
2020/12/15 01:58:01;;;;;;;16.48;8.30;;;;;;;;;;2063776;28;20082;-71
2020/12/15 01:59:22;;;;;;;14.95;8.10;;;;;;;;;;2064526;28;20030;-71
2020/12/15 02:00:41;;;;;;;15.40;8.70;;;;;;;;;;2064569;28;20030;-71
2020/12/15 02:02:00;;;;;;;14.95;7.90;;;;;;;;;;2065497;28;20042;-72
2020/12/15 02:03:19;;;;;;;13.20;7.82;;;;;;;;;;2064925;28;20422;-72
2020/12/15 02:04:37;;;;;;;10.93;7.68;;;;;;;;;;2064484;28;20525;-71
2020/12/15 02:05:56;;;;;;;14.57;7.78;;;;;;;;;;2066134;28;20122;-71
2020/12/15 02:07:17;;;;;;;13.73;7.72;;;;;;;;;;2061727;28;20022;-71
2020/12/15 02:08:36;;;;;;;12.05;7.38;;;;;;;;;;2063425;28;20101;-71
2020/12/15 02:09:54;;;;;;;11.45;6.85;;;;;;;;;;2065171;28;20105;-72
2020/12/15 02:11:13;;;;;;;17.70;8.07;;;;;;;;;;2064234;28;20022;-71
2020/12/15 02:12:32;;;;;;;11.13;7.07;;;;;;;;;;2063236;28;20398;-72
2020/12/15 02:13:51;;;;;;;11.50;6.85;;;;;;;;;;2061468;28;20106;-72
2020/12/15 02:15:09;;;;;;;12.93;6.70;;;;;;;;;;2064817;28;20410;-72
2020/12/15 02:16:30;;;;;;;12.75;6.55;;;;;;;;;;2064549;28;20414;-72
2020/12/15 02:17:48;;;;;;;10.93;7.25;;;;;;;;;;2063817;28;20608;-71
2020/12/15 02:19:14;;;;;;;14.27;6.60;;;;;;;;;;2064133;28;20034;-72
2020/12/15 02:20:36;;;;;;;9.65;6.15;;;;;;;;;;2064111;28;20026;-72
2020/12/15 02:21:56;;;;;;;10.05;6.18;;;;;;;;;;2064963;28;20022;-71
2020/12/15 02:23:14;;;;;;;16.08;6.93;;;;;;;;;;2065267;28;20030;-72
2020/12/15 02:24:33;;;;;;;12.45;6.78;;;;;;;;;;2064795;28;20035;-72
2020/12/15 02:25:52;;;;;;;11.00;6.57;;;;;;;;;;2064521;28;20043;-72
2020/12/15 02:27:11;;;;;;;12.63;5.75;;;;;;;;;;2059577;28;20066;-72
2020/12/15 02:28:30;;;;;;;13.48;6.65;;;;;;;;;;2061128;28;20019;-72
2020/12/15 02:29:48;;;;;;;9.35;6.82;;;;;;;;;;2064273;28;20110;-72
2020/12/15 02:31:07;;;;;;;9.73;5.90;;;;;;;;;;2060956;28;20027;-72
2020/12/15 02:32:26;;;;;;;14.68;7.25;;;;;;;;;;2061496;28;20106;-72
2020/12/15 02:33:45;;;;;;;13.35;6.65;;;;;;;;;;2062807;28;20027;-73
2020/12/15 02:35:04;;;;;;;17.95;7.15;;;;;;;;;;2061401;28;20467;-72
2020/12/15 02:36:23;;;;;;;11.88;6.97;;;;;;;;;;2065252;28;20026;-72
2020/12/15 02:37:42;;;;;;;12.95;7.35;;;;;;;;;;2061987;28;20085;-72
2020/12/15 02:39:03;;;;;;;11.55;6.82;;;;;;;;;;2061967;28;20026;-71
2020/12/15 02:40:22;;;;;;;14.50;7.80;;;;;;;;;;2065012;28;20030;-72
2020/12/15 02:41:41;;;;;;;12.50;6.68;;;;;;;;;;2064630;28;20482;-72
2020/12/15 02:43:00;;;;;;;15.45;7.70;;;;;;;;;;2060036;28;20034;-73
2020/12/15 02:44:19;;;;;;;11.05;6.63;;;;;;;;;;2057126;28;20113;-72
2020/12/15 02:45:37;;;;;;;12.77;6.95;;;;;;;;;;2063621;28;20419;-72
2020/12/15 02:46:56;;;;;;;14.65;6.90;;;;;;;;;;2066225;28;20470;-72
2020/12/15 02:48:15;;;;;;;13.02;7.32;;;;;;;;;;2065906;28;20026;-72
2020/12/15 02:49:34;;;;;;;11.93;7.22;;;;;;;;;;2059997;28;20034;-73
2020/12/15 02:50:53;;;;;;;16.83;6.95;;;;;;;;;;2063254;28;20035;-72
2020/12/15 02:52:12;;;;;;;13.20;6.88;;;;;;;;;;2065155;28;20050;-72
2020/12/15 02:53:31;;;;;;;13.52;7.80;;;;;;;;;;2060149;28;20023;-71
2020/12/15 02:54:50;;;;;;;13.27;7.72;;;;;;;;;;2062865;28;20438;-72
2020/12/15 02:56:09;;;;;;;11.57;6.55;;;;;;;;;;2061504;28;20030;-72
2020/12/15 02:57:28;;;;;;;14.93;7.47;;;;;;;;;;2060399;28;20046;-72
2020/12/15 02:58:46;;;;;;;17.80;8.50;;;;;;;;;;2062522;28;20058;-72
2020/12/15 03:00:09;;;;;;;15.48;7.60;;;;;;;;;;2059481;28;20023;-72
2020/12/15 03:01:28;;;;;;;13.98;7.97;;;;;;;;;;2061801;28;20589;-72
2020/12/15 03:02:48;;;;;;;11.63;7.35;;;;;;;;;;2059066;28;20054;-72
2020/12/15 03:04:08;;;;;;;10.95;7.15;;;;;;;;;;2062361;28;20027;-72
2020/12/15 03:05:27;;;;;;;12.85;7.50;;;;;;;;;;2061221;28;20034;-72
2020/12/15 03:06:46;;;;;;;13.05;7.97;;;;;;;;;;2064582;28;20034;-72
2020/12/15 03:08:04;;;;;;;13.75;8.43;;;;;;;;;;2062634;28;20018;-72
2020/12/15 03:09:23;;;;;;;11.23;7.68;;;;;;;;;;2062113;28;20022;-72
2020/12/15 03:10:42;;;;;;;13.82;8.20;;;;;;;;;;2064058;28;20453;-72
2020/12/15 03:12:01;;;;;;;14.73;8.45;;;;;;;;;;2064539;28;20030;-72
2020/12/15 03:13:20;;;;;;;15.13;8.50;;;;;;;;;;2062404;28;20031;-71
2020/12/15 03:14:39;;;;;;;13.30;8.13;;;;;;;;;;2059048;28;20027;-72
2020/12/15 03:15:58;;;;;;;12.52;8.45;;;;;;;;;;2063913;28;20026;-72
2020/12/15 03:17:17;;;;;;;9.90;7.88;;;;;;;;;;2062534;28;20031;-72
2020/12/15 03:18:36;;;;;;;12.43;8.18;;;;;;;;;;2063406;28;20038;-72
2020/12/15 03:19:55;;;;;;;14.13;9.05;;;;;;;;;;2060607;28;20438;-72
2020/12/15 03:21:17;;;;;;;16.08;8.75;;;;;;;;;;2060345;28;20034;-72
2020/12/15 03:22:36;;;;;;;14.15;8.98;;;;;;;;;;2062522;28;20043;-72
2020/12/15 03:23:55;;;;;;;15.43;8.80;;;;;;;;;;2063906;28;20427;-72
2020/12/15 03:25:19;;;;;;;12.13;8.48;;;;;;;;;;2064035;28;20034;-72
2020/12/15 03:26:39;;;;;;;15.73;9.00;;;;;;;;;;2063803;28;20030;-72
2020/12/15 03:27:57;;;;;;;18.88;9.32;;;;;;;;;;2063507;28;20027;-72
2020/12/15 03:29:16;;;;;;;15.65;9.05;;;;;;;;;;2061229;28;20054;-72
2020/12/15 03:30:36;;;;;;;16.17;9.60;;;;;;;;;;2065281;28;20031;-72
2020/12/15 03:31:55;;;;;;;21.00;9.80;;;;;;;;;;2064891;28;20023;-73
2020/12/15 03:33:14;;;;;;;14.55;8.70;;;;;;;;;;2065821;28;20058;-72
2020/12/15 03:34:33;;;;;;;15.52;9.15;;;;;;;;;;2062664;28;20022;-72
2020/12/15 03:35:52;;;;;;;16.58;10.65;;;;;;;;;;2062301;28;20383;-72
2020/12/15 03:37:10;;;;;;;16.17;9.68;;;;;;;;;;2064996;28;20027;-72
2020/12/15 03:38:29;;;;;;;14.93;9.95;;;;;;;;;;2063037;28;20430;-71
2020/12/15 03:39:48;;;;;;;15.35;10.82;;;;;;;;;;2064352;28;20117;-72
2020/12/15 03:41:07;;;;;;;16.70;9.77;;;;;;;;;;2065849;28;20042;-72
2020/12/15 03:42:26;;;;;;;18.77;9.63;;;;;;;;;;2065392;28;20027;-73
2020/12/15 03:43:44;;;;;;;18.13;10.32;;;;;;;;;;2064886;28;20237;-72
2020/12/15 03:45:04;;;;;;;15.40;10.02;;;;;;;;;;2063600;28;20482;-73
2020/12/15 03:46:23;;;;;;;18.00;10.10;;;;;;;;;;2062412;28;20034;-73
2020/12/15 03:47:43;;;;;;;16.77;10.05;;;;;;;;;;2064520;28;20026;-72
2020/12/15 03:49:02;;;;;;;15.13;10.32;;;;;;;;;;2057732;28;20023;-72
2020/12/15 03:50:21;;;;;;;17.73;10.15;;;;;;;;;;2065423;28;20030;-72
2020/12/15 03:51:40;;;;;;;16.58;9.95;;;;;;;;;;2065333;28;20030;-73
2020/12/15 03:52:59;;;;;;;15.93;10.43;;;;;;;;;;2064561;28;20058;-72
2020/12/15 03:54:18;;;;;;;14.63;10.10;;;;;;;;;;2062402;28;20030;-72
2020/12/15 03:55:37;;;;;;;17.45;10.68;;;;;;;;;;2065802;28;20034;-72
2020/12/15 03:56:56;;;;;;;18.05;11.07;;;;;;;;;;2065241;28;20023;-72
2020/12/15 03:58:15;;;;;;;16.08;10.95;;;;;;;;;;2057591;28;20034;-72
2020/12/15 03:59:33;;;;;;;18.80;10.63;;;;;;;;;;2062834;28;20023;-73
2020/12/15 04:00:52;;;;;;;17.05;10.48;;;;;;;;;;2065536;28;20050;-72
2020/12/15 04:02:11;;;;;;;15.18;10.27;;;;;;;;;;2065044;28;20030;-72
2020/12/15 04:03:30;;;;;;;17.00;10.73;;;;;;;;;;2063433;28;20479;-72
2020/12/15 04:04:49;;;;;;;18.23;10.55;;;;;;;;;;2061636;28;20063;-72
2020/12/15 04:06:08;;;;;;;18.10;10.30;;;;;;;;;;2064176;28;20035;-72
2020/12/15 04:07:27;;;;;;;17.05;10.27;;;;;;;;;;2065642;28;20054;-72
2020/12/15 04:08:46;;;;;;;20.02;10.93;;;;;;;;;;2060264;28;20026;-72
2020/12/15 04:10:05;;;;;;;16.23;10.07;;;;;;;;;;2061019;28;20023;-73
2020/12/15 04:11:24;;;;;;;16.88;11.00;;;;;;;;;;2062342;28;20483;-72
2020/12/15 04:12:43;;;;;;;20.88;10.60;;;;;;;;;;2063965;28;20061;-72
2020/12/15 04:14:02;;;;;;;20.08;12.27;;;;;;;;;;2065644;28;20105;-73
2020/12/15 04:15:21;;;;;;;22.30;12.00;;;;;;;;;;2063000;28;20058;-72
2020/12/15 04:16:40;;;;;;;23.85;11.82;;;;;;;;;;2064260;28;20038;-72
2020/12/15 04:17:59;;;;;;;18.35;11.35;;;;;;;;;;2058809;28;20046;-72
2020/12/15 04:19:18;;;;;;;18.42;11.80;;;;;;;;;;2064540;28;20034;-73
2020/12/15 04:20:37;;;;;;;21.52;13.43;;;;;;;;;;2059919;28;20430;-72
2020/12/15 04:21:55;;;;;;;19.25;11.90;;;;;;;;;;2063343;28;20027;-72
2020/12/15 04:23:14;;;;;;;23.25;12.88;;;;;;;;;;2064826;28;20074;-72
2020/12/15 04:24:33;;;;;;;28.10;12.88;;;;;;;;;;2065182;28;20434;-72
2020/12/15 04:25:54;;;;;;;29.08;13.45;;;;;;;;;;2058808;28;20055;-73
2020/12/15 04:27:13;;;;;;;20.42;12.45;;;;;;;;;;2062138;28;20383;-72
2020/12/15 04:28:31;;;;;;;23.05;12.82;;;;;;;;;;2060394;28;20030;-72
2020/12/15 04:29:50;;;;;;;25.85;13.73;;;;;;;;;;2059369;28;20027;-72
2020/12/15 04:31:09;;;;;;;30.98;13.63;;;;;;;;;;2065419;28;20375;-72
2020/12/15 04:32:28;;;;;;;28.08;12.85;;;;;;;;;;2064826;28;20030;-72
2020/12/15 04:33:47;;;;;;;27.42;13.93;;;;;;;;;;2064418;28;20034;-72
2020/12/15 04:35:06;;;;;;;23.92;13.52;;;;;;;;;;2062226;28;20043;-72
2020/12/15 04:36:25;;;;;;;23.50;13.45;;;;;;;;;;2058971;28;20035;-72
2020/12/15 04:37:44;;;;;;;23.20;13.45;;;;;;;;;;2065084;28;20066;-72
2020/12/15 04:39:04;;;;;;;28.52;14.70;;;;;;;;;;2060457;28;20066;-72
2020/12/15 04:40:23;;;;;;;23.20;13.38;;;;;;;;;;2062629;28;20030;-72
2020/12/15 04:41:43;;;;;;;24.00;13.63;;;;;;;;;;2064488;28;20034;-72
2020/12/15 04:43:02;;;;;;;24.52;13.98;;;;;;;;;;2065183;28;20443;-73
2020/12/15 04:44:21;;;;;;;25.88;14.00;;;;;;;;;;2063573;28;20030;-71
2020/12/15 04:45:40;;;;;;;24.40;13.60;;;;;;;;;;2062910;28;20022;-72
2020/12/15 04:47:02;;;;;;;25.50;13.50;;;;;;;;;;2064067;28;20027;-71
2020/12/15 04:48:24;;;;;;;28.58;15.15;;;;;;;;;;2061785;28;20022;-71
2020/12/15 04:50:03;;;;;;;24.42;14.02;;;;;;;;;;2065267;28;20030;-71
2020/12/15 04:51:25;;;;;;;29.58;14.77;;;;;;;;;;2063457;28;20022;-72
2020/12/15 04:52:48;;;;;;;24.33;14.30;;;;;;;;;;2063525;28;20023;-72
2020/12/15 04:54:15;;;;;;;27.65;15.20;;;;;;;;;;2062174;28;20050;-73
2020/12/15 04:55:34;;;;;;;30.92;13.80;;;;;;;;;;2063121;28;20031;-72
2020/12/15 04:56:55;;;;;;;25.95;14.30;;;;;;;;;;2061840;28;20026;-73
2020/12/15 04:58:18;;;;;;;27.48;14.15;;;;;;;;;;2061328;28;20035;-73
2020/12/15 04:59:37;;;;;;;31.45;14.23;;;;;;;;;;2060781;28;20031;-72
2020/12/15 05:00:56;;;;;;;25.67;13.68;;;;;;;;;;2063580;28;20027;-72
2020/12/15 05:02:17;;;;;;;27.83;15.18;;;;;;;;;;2065561;28;20035;-72
2020/12/15 05:03:37;;;;;;;27.02;13.75;;;;;;;;;;2058462;28;20097;-72
2020/12/15 05:04:57;;;;;;;30.70;14.70;;;;;;;;;;2059438;28;20031;-72
2020/12/15 05:06:16;;;;;;;31.15;14.50;;;;;;;;;;2065235;28;20018;-71
2020/12/15 05:07:40;;;;;;;27.73;15.07;;;;;;;;;;2060239;28;20030;-71
2020/12/15 05:08:59;;;;;;;27.55;13.95;;;;;;;;;;2063336;28;20031;-72
2020/12/15 05:10:18;;;;;;;24.40;13.82;;;;;;;;;;2060200;28;20031;-72
2020/12/15 05:11:37;;;;;;;26.35;13.48;;;;;;;;;;2052161;28;20031;-73
2020/12/15 05:12:56;;;;;;;28.33;14.93;;;;;;;;;;2059316;28;20035;-71
2020/12/15 05:14:15;;;;;;;25.73;14.30;;;;;;;;;;2062875;28;20019;-72
2020/12/15 05:15:34;;;;;;;27.75;15.25;;;;;;;;;;2062383;28;20022;-72
2020/12/15 05:16:54;;;;;;;26.80;14.60;;;;;;;;;;2061501;28;20039;-72
2020/12/15 05:18:19;;;;;;;27.17;13.52;;;;;;;;;;2063355;28;20414;-72
2020/12/15 05:19:44;;;;;;;26.58;13.95;;;;;;;;;;2056940;28;20487;-72
2020/12/15 05:21:16;;;;;;;27.55;14.45;;;;;;;;;;2057837;28;20109;-71
2020/12/15 05:22:37;;;;;;;28.55;14.35;;;;;;;;;;2062499;28;20445;-71
2020/12/15 05:23:56;;;;;;;25.77;14.15;;;;;;;;;;2060653;28;20031;-72
2020/12/15 05:25:28;;;;;;;26.42;14.73;;;;;;;;;;2064830;28;20105;-72
2020/12/15 05:26:47;;;;;;;30.65;15.48;;;;;;;;;;2062382;28;20394;-71
2020/12/15 05:28:11;;;;;;;25.98;14.27;;;;;;;;;;2063339;28;20379;-71
2020/12/15 05:29:30;;;;;;;28.67;13.82;;;;;;;;;;2062017;28;20071;-72
2020/12/15 05:30:58;;;;;;;26.17;14.85;;;;;;;;;;2059534;28;20069;-71
2020/12/15 05:32:17;;;;;;;30.95;16.00;;;;;;;;;;2056049;28;20023;-72
2020/12/15 05:33:36;;;;;;;25.42;15.18;;;;;;;;;;2063602;28;20402;-72
2020/12/15 05:35:04;;;;;;;26.70;14.90;;;;;;;;;;2063824;28;20042;-72
2020/12/15 05:36:23;;;;;;;27.27;14.52;;;;;;;;;;2058897;28;20022;-72
2020/12/15 05:37:43;;;;;;;34.42;15.93;;;;;;;;;;2057037;28;20035;-73
2020/12/15 05:39:06;;;;;;;25.27;13.38;;;;;;;;;;2064946;28;20022;-74
2020/12/15 05:40:25;;;;;;;27.55;14.55;;;;;;;;;;2061675;28;20026;-71
2020/12/15 05:41:44;;;;;;;29.92;15.27;;;;;;;;;;2063467;28;20034;-72
2020/12/15 05:43:04;;;;;;;23.70;13.18;;;;;;;;;;2063677;28;20062;-73
2020/12/15 05:44:26;;;;;;;24.23;13.15;;;;;;;;;;2062611;28;20089;-73
2020/12/15 05:45:49;;;;;;;25.10;13.60;;;;;;;;;;2061222;28;20027;-72
2020/12/15 05:47:08;;;;;;;24.13;13.32;;;;;;;;;;2061476;28;20149;-73
2020/12/15 05:48:28;;;;;;;26.88;13.60;;;;;;;;;;2060036;28;20117;-73
2020/12/15 05:49:47;;;;;;;26.58;14.43;;;;;;;;;;2059473;28;20113;-72
2020/12/15 05:51:05;;;;;;;26.75;13.80;;;;;;;;;;2058432;28;20018;-70
2020/12/15 05:52:28;;;;;;;22.83;13.93;;;;;;;;;;2059013;28;20035;-72
2020/12/15 05:53:47;;;;;;;25.15;13.63;;;;;;;;;;2064022;28;20030;-72
2020/12/15 05:55:06;;;;;;;24.70;12.65;;;;;;;;;;2064423;28;20460;-70
2020/12/15 05:56:25;;;;;;;21.58;12.73;;;;;;;;;;2060791;28;20038;-70
2020/12/15 05:57:45;;;;;;;24.33;14.23;;;;;;;;;;2060766;28;20034;-72
2020/12/15 05:59:19;;;;;;;26.25;12.63;;;;;;;;;;2063013;28;20042;-72
2020/12/15 06:00:38;;;;;;;22.63;13.45;;;;;;;;;;2057044;28;20034;-73
2020/12/15 06:02:05;;;;;;;23.85;12.80;;;;;;;;;;2062801;28;20030;-73
2020/12/15 06:03:24;;;;;;;20.17;11.93;;;;;;;;;;2061839;28;20546;-73
2020/12/15 06:04:43;;;;;;;20.40;11.70;;;;;;;;;;2064419;28;20030;-73
2020/12/15 06:06:03;;;;;;;22.38;12.73;;;;;;;;;;2061080;28;20058;-74
2020/12/15 06:07:22;;;;;;;20.88;12.70;;;;;;;;;;2071476;28;20054;-70
2020/12/15 06:08:42;;;;;;;19.88;11.20;;;;;;;;;;2056364;28;20031;-65
2020/12/15 06:10:02;;;;;;;20.20;11.75;;;;;;;;;;2060931;28;20023;-66
2020/12/15 06:11:21;;;;;;;18.27;11.32;;;;;;;;;;2062734;28;20026;-68
2020/12/15 06:12:40;;;;;;;24.05;12.65;;;;;;;;;;2064719;28;20208;-66
2020/12/15 06:14:00;;;;;;;23.55;11.75;;;;;;;;;;2061421;28;20387;-66
2020/12/15 06:15:19;;;;;;;18.73;10.77;;;;;;;;;;2056876;28;20031;-67
2020/12/15 06:16:38;;;;;;;15.90;10.38;;;;;;;;;;2060212;28;20027;-66
2020/12/15 06:17:58;;;;;;;21.90;11.88;;;;;;;;;;2060223;28;20498;-66
2020/12/15 06:19:18;;;;;;;19.75;11.48;;;;;;;;;;2063333;28;20371;-66
2020/12/15 06:20:37;;;;;;;18.65;11.73;;;;;;;;;;2062429;28;20113;-66
2020/12/15 06:21:56;;;;;;;19.48;11.80;;;;;;;;;;2064164;28;20022;-66
2020/12/15 06:23:15;;;;;;;19.15;11.50;;;;;;;;;;2064033;28;20027;-66
2020/12/15 06:24:40;;;;;;;18.48;12.27;;;;;;;;;;2064213;28;20038;-67
2020/12/15 06:25:59;;;;;;;20.65;10.88;;;;;;;;;;2063977;28;20094;-66
2020/12/15 06:27:27;;;;;;;22.45;11.73;;;;;;;;;;2061663;28;20022;-67
2020/12/15 06:28:55;;;;;;;19.63;12.05;;;;;;;;;;2060664;28;20023;-66
2020/12/15 06:30:15;;;;;;;21.85;12.43;;;;;;;;;;2060934;28;20027;-66
2020/12/15 06:31:35;;;;;;;19.27;12.02;;;;;;;;;;2058555;28;20034;-66
2020/12/15 06:33:04;;;;;;;19.65;11.80;;;;;;;;;;2066294;28;20475;-66
2020/12/15 06:34:30;;;;;;;21.52;11.60;;;;;;;;;;2063648;28;20022;-67
2020/12/15 06:35:49;;;;;;;19.30;11.10;;;;;;;;;;2063813;28;20027;-67
2020/12/15 06:37:08;;;;;;;25.75;12.00;;;;;;;;;;2064683;28;20030;-68
2020/12/15 06:38:27;;;;;;;19.02;11.93;;;;;;;;;;2061567;28;20031;-67
2020/12/15 06:39:52;;;;;;;24.35;12.82;;;;;;;;;;2058486;28;20098;-69
2020/12/15 06:41:18;;;;;;;22.38;11.63;;;;;;;;;;2060696;28;20542;-68
2020/12/15 06:42:46;;;;;;;19.20;12.40;;;;;;;;;;2062768;28;20034;-69
2020/12/15 06:44:06;;;;;;;20.42;12.20;;;;;;;;;;2061835;28;20455;-70
2020/12/15 06:45:25;;;;;;;19.75;11.73;;;;;;;;;;2063371;28;20034;-69
2020/12/15 06:46:52;;;;;;;23.33;12.45;;;;;;;;;;2059772;28;20019;-68
2020/12/15 06:48:13;;;;;;;21.10;12.35;;;;;;;;;;2061018;28;20105;-70
2020/12/15 06:49:33;;;;;;;23.55;12.48;;;;;;;;;;2061285;28;20034;-71
2020/12/15 06:50:52;;;;;;;23.63;13.88;;;;;;;;;;2067006;28;20460;-68
2020/12/15 06:52:11;;;;;;;23.08;12.70;;;;;;;;;;2064424;28;20026;-69
2020/12/15 06:53:30;;;;;;;28.38;13.55;;;;;;;;;;2063999;28;20101;-69
2020/12/15 06:54:55;;;;;;;26.73;13.23;;;;;;;;;;2063540;28;20030;-69
2020/12/15 06:56:15;;;;;;;25.65;13.75;;;;;;;;;;2057528;28;20035;-68
2020/12/15 06:57:34;;;;;;;31.48;14.98;;;;;;;;;;2059332;28;20038;-68
2020/12/15 06:59:04;;;;;;;23.38;14.02;;;;;;;;;;2063507;28;20019;-67
2020/12/15 07:00:31;;;;;;;29.90;14.20;;;;;;;;;;2064082;28;20117;-68
2020/12/15 07:01:50;;;;;;;28.23;13.63;;;;;;;;;;2065046;28;20034;-68
2020/12/15 07:03:09;;;;;;;29.45;15.52;;;;;;;;;;2062133;28;20534;-68
2020/12/15 07:04:28;;;;;;;29.08;14.90;;;;;;;;;;2062747;28;20487;-68
2020/12/15 07:05:47;;;;;;;30.67;16.63;;;;;;;;;;2063662;28;20038;-68
2020/12/15 07:07:06;;;;;;;28.52;14.73;;;;;;;;;;2064578;28;20018;-68
2020/12/15 07:08:24;;;;;;;26.90;14.38;;;;;;;;;;2062439;28;20475;-69
2020/12/15 07:09:44;;;;;;;27.00;15.57;;;;;;;;;;2065097;28;20042;-68
2020/12/15 07:11:03;;;;;;;27.95;16.00;;;;;;;;;;2064682;28;20109;-68
2020/12/15 07:12:21;;;;;;;28.90;16.75;;;;;;;;;;2064991;28;20022;-68
2020/12/15 07:13:41;;;;;;;34.13;17.38;;;;;;;;;;2065006;28;20022;-68
2020/12/15 07:14:59;;;;;;;37.03;16.85;;;;;;;;;;2063786;28;20023;-68
2020/12/15 07:16:19;;;;;;;32.47;17.50;;;;;;;;;;2061955;28;20030;-68
2020/12/15 07:17:42;;;;;;;33.45;17.70;;;;;;;;;;2064398;28;20038;-69
2020/12/15 07:19:02;;;;;;;34.10;16.98;;;;;;;;;;2064134;28;20418;-68
2020/12/15 07:20:21;;;;;;;32.55;16.95;;;;;;;;;;2060809;28;20042;-68
2020/12/15 07:21:40;;;;;;;38.63;18.25;;;;;;;;;;2061248;28;20061;-68
2020/12/15 07:23:00;;;;;;;36.83;19.58;;;;;;;;;;2061036;28;20026;-69
2020/12/15 07:24:19;;;;;;;29.38;16.88;;;;;;;;;;2064578;28;20026;-68
2020/12/15 07:25:37;;;;;;;32.63;17.75;;;;;;;;;;2064106;28;20085;-68
2020/12/15 07:26:57;;;;;;;33.00;18.17;;;;;;;;;;2062968;28;20030;-69
2020/12/15 07:28:15;;;;;;;38.13;18.65;;;;;;;;;;2062323;28;20030;-68
2020/12/15 07:29:34;;;;;;;34.40;18.13;;;;;;;;;;2063376;28;20031;-69
2020/12/15 07:30:53;;;;;;;40.55;17.90;;;;;;;;;;2065289;28;20479;-68
2020/12/15 07:32:18;;;;;;;36.55;18.05;;;;;;;;;;2059131;28;20102;-68
2020/12/15 07:33:38;;;;;;;31.60;17.50;;;;;;;;;;2059870;28;20027;-68
2020/12/15 07:35:01;;;;;;;34.83;17.77;;;;;;;;;;2064338;28;20495;-68
2020/12/15 07:36:19;;;;;;;39.55;19.35;;;;;;;;;;2061820;28;20034;-68
2020/12/15 07:37:39;;;;;;;31.67;16.42;;;;;;;;;;2061360;28;20450;-68
2020/12/15 07:38:59;;;;;;;36.88;18.08;;;;;;;;;;2063271;28;20434;-68
2020/12/15 07:40:19;;;;;;;37.92;17.50;;;;;;;;;;2062004;28;20038;-67
2020/12/15 07:41:38;;;;;;;34.80;17.67;;;;;;;;;;2062790;28;20114;-68
2020/12/15 07:43:01;;;;;;;35.33;17.15;;;;;;;;;;2062223;28;20038;-68
2020/12/15 07:44:20;;;;;;;32.75;18.20;;;;;;;;;;2060684;28;20034;-68
2020/12/15 07:45:38;;;;;;;32.35;17.50;;;;;;;;;;2065595;28;20029;-68
2020/12/15 07:46:57;;;;;;;36.63;18.85;;;;;;;;;;2058876;28;20035;-67
2020/12/15 07:48:17;;;;;;;31.60;17.70;;;;;;;;;;2062820;28;20490;-70